createdAt,value
2023-03-02T00:41:37.990Z,21.60
2023-03-02T00:44:37.746Z,21.61
2023-03-02T00:45:37.774Z,21.61
2023-03-02T00:46:37.833Z,21.61
2023-03-02T00:47:37.865Z,21.61
2023-03-02T00:48:37.912Z,21.60
2023-03-02T00:49:37.982Z,21.61
2023-03-02T00:50:38.027Z,21.60
2023-03-02T00:51:38.072Z,21.63
2023-03-02T00:52:38.123Z,21.63
2023-03-02T00:53:38.142Z,21.59
2023-03-02T00:54:38.156Z,21.60
2023-03-02T00:55:38.188Z,21.63
2023-03-02T00:56:38.209Z,21.60
2023-03-02T00:57:38.225Z,21.63
2023-03-02T00:58:38.254Z,21.60
2023-03-02T00:59:38.283Z,21.59
2023-03-02T01:00:38.320Z,21.60
2023-03-02T01:01:38.356Z,21.60
2023-03-02T01:02:38.522Z,21.61
2023-03-02T01:03:38.382Z,21.60
2023-03-02T01:04:38.411Z,21.61
2023-03-02T01:05:38.440Z,21.60
2023-03-02T01:06:38.461Z,21.63
2023-03-02T01:07:38.510Z,21.61
2023-03-02T01:08:38.559Z,21.59
2023-03-02T01:09:39.006Z,21.61
2023-03-02T01:10:38.605Z,21.59
2023-03-02T01:11:38.628Z,21.61
2023-03-02T01:12:38.628Z,21.60
2023-03-02T01:13:38.662Z,21.61
2023-03-02T01:14:38.693Z,21.59
2023-03-02T01:15:38.734Z,21.61
2023-03-02T01:16:38.851Z,21.61
2023-03-02T01:17:38.785Z,21.63
2023-03-02T01:18:38.831Z,21.60
2023-03-02T01:19:38.828Z,21.60
2023-03-02T01:20:38.847Z,21.61
2023-03-02T01:21:38.890Z,21.61
2023-03-02T01:22:38.922Z,21.61
2023-03-02T01:23:38.977Z,21.60
2023-03-02T01:24:38.988Z,21.60
2023-03-02T01:25:39.065Z,21.63
2023-03-02T01:26:39.054Z,21.60
2023-03-02T01:27:39.085Z,21.61
2023-03-02T01:28:39.146Z,21.61
2023-03-02T01:29:39.166Z,21.60
2023-03-02T01:30:39.202Z,21.60
2023-03-02T01:31:39.335Z,21.61
2023-03-02T01:32:39.291Z,21.61
2023-03-02T01:33:39.318Z,21.59
2023-03-02T01:34:39.351Z,21.60
2023-03-02T01:35:39.425Z,21.60
2023-03-02T01:36:39.406Z,21.61
2023-03-02T01:57:39.863Z,21.57
2023-03-02T01:58:39.903Z,21.59
2023-03-02T01:59:39.955Z,21.60
2023-03-02T02:00:39.998Z,21.60
2023-03-02T02:01:39.978Z,21.59
2023-03-02T02:02:39.991Z,21.60
2023-03-02T02:03:40.068Z,21.60
2023-03-02T02:04:40.029Z,21.60
2023-03-02T02:05:40.074Z,21.60
2023-03-02T02:06:40.066Z,21.61
2023-03-02T02:07:40.067Z,21.59
2023-03-02T02:08:40.072Z,21.60
2023-03-02T02:09:40.055Z,21.60
2023-03-02T02:10:40.050Z,21.60
2023-03-02T02:11:40.038Z,21.60
2023-03-02T02:12:40.046Z,21.61
2023-03-02T02:13:40.051Z,21.61
2023-03-02T02:14:40.036Z,21.60
2023-03-02T02:15:40.046Z,21.60
2023-03-02T02:16:40.154Z,21.59
2023-03-02T02:17:40.062Z,21.60
2023-03-02T02:18:40.083Z,21.61
2023-03-02T02:19:40.091Z,21.59
2023-03-02T02:20:40.102Z,21.60
2023-03-02T02:21:40.116Z,21.60
2023-03-02T02:22:40.125Z,21.59
2023-03-02T02:23:40.116Z,21.61
2023-03-02T02:24:40.144Z,21.60
2023-03-02T02:25:40.146Z,21.59
2023-03-02T02:26:40.165Z,21.60
2023-03-02T02:27:40.163Z,21.60
2023-03-02T02:28:40.192Z,21.59
2023-03-02T02:29:40.171Z,21.61
2023-03-02T02:30:40.155Z,21.60
2023-03-02T02:31:40.229Z,21.60
2023-03-02T02:32:40.266Z,21.60
2023-03-02T02:33:40.204Z,21.60
2023-03-02T02:34:40.239Z,21.59
2023-03-02T02:35:40.303Z,21.61
2023-03-02T02:36:40.262Z,21.60
2023-03-02T02:37:40.274Z,21.60
2023-03-02T02:38:40.288Z,21.60
2023-03-02T02:39:40.299Z,21.60
2023-03-02T02:40:40.294Z,21.61
2023-03-02T02:41:40.295Z,21.59
2023-03-02T02:42:40.295Z,21.57
2023-03-02T02:43:40.296Z,21.60
2023-03-02T02:44:40.314Z,21.59
2023-03-02T02:45:40.353Z,21.59
2023-03-02T02:46:40.373Z,21.59
2023-03-02T02:47:40.400Z,21.60
2023-03-02T02:48:40.411Z,21.60
2023-03-02T02:49:40.476Z,21.57
2023-03-02T02:50:40.489Z,21.59
2023-03-02T02:51:40.517Z,21.57
2023-03-02T02:52:40.571Z,21.56
2023-03-02T02:53:40.578Z,21.57
2023-03-02T02:54:40.624Z,21.56
2023-03-02T02:55:40.660Z,21.57
2023-03-02T02:56:40.685Z,21.57
2023-03-02T02:57:40.711Z,21.59
2023-03-02T02:58:40.750Z,21.59
2023-03-02T02:59:40.794Z,21.60
2023-03-02T03:00:40.790Z,21.59
2023-03-02T03:01:40.865Z,21.57
2023-03-02T03:02:40.833Z,21.57
2023-03-02T03:03:40.868Z,21.57
2023-03-02T03:04:40.950Z,21.59
2023-03-02T03:05:40.941Z,21.57
2023-03-02T03:06:40.978Z,21.56
2023-03-02T03:07:41.017Z,21.59
2023-03-02T03:08:41.052Z,21.59
2023-03-02T03:09:41.216Z,21.57
2023-03-02T03:10:41.093Z,21.59
2023-03-02T03:11:41.102Z,21.59
2023-03-02T03:12:41.118Z,21.59
2023-03-02T03:13:41.556Z,21.60
2023-03-02T03:14:41.135Z,21.59
2023-03-02T03:15:41.156Z,21.57
2023-03-02T03:16:41.196Z,21.56
2023-03-02T03:17:41.181Z,21.57
2023-03-02T03:18:41.187Z,21.59
2023-03-02T03:19:41.194Z,21.57
2023-03-02T03:20:41.206Z,21.57
2023-03-02T03:22:41.230Z,21.57
2023-03-02T03:23:41.246Z,21.59
2023-03-02T03:24:41.269Z,21.59
2023-03-02T03:25:41.899Z,21.57
2023-03-02T03:26:41.273Z,21.59
2023-03-02T03:27:41.273Z,21.59
2023-03-02T03:28:41.265Z,21.60
2023-03-02T03:29:41.292Z,21.59
2023-03-02T03:30:41.318Z,21.59
2023-03-02T03:31:41.288Z,21.57
2023-03-02T03:32:41.283Z,21.57
2023-03-02T03:33:41.281Z,21.56
2023-03-02T03:34:41.288Z,21.57
2023-03-02T03:35:41.316Z,21.56
2023-03-02T03:36:41.320Z,21.59
2023-03-02T03:37:41.333Z,21.57
2023-03-02T03:38:41.339Z,21.59
2023-03-02T03:39:41.352Z,21.56
2023-03-02T03:40:41.359Z,21.60
2023-03-02T03:41:41.429Z,21.59
2023-03-02T03:42:41.365Z,21.60
2023-03-02T03:43:41.371Z,21.60
2023-03-02T03:44:41.386Z,21.57
2023-03-02T03:45:41.392Z,21.60
2023-03-02T03:46:41.407Z,21.59
2023-03-02T03:47:41.432Z,21.60
2023-03-02T03:48:41.456Z,21.57
2023-03-02T03:49:41.483Z,21.59
2023-03-02T03:50:41.455Z,21.59
2023-03-02T03:51:41.472Z,21.59
2023-03-02T03:52:41.474Z,21.57
2023-03-02T03:53:41.451Z,21.59
2023-03-02T03:54:41.458Z,21.59
2023-03-02T03:55:41.459Z,21.60
2023-03-02T03:56:41.455Z,21.57
2023-03-02T03:57:41.460Z,21.57
2023-03-02T03:58:41.519Z,21.61
2023-03-02T03:59:41.463Z,21.56
2023-03-02T04:00:41.491Z,21.57
2023-03-02T04:01:41.562Z,21.59
2023-03-02T04:02:41.628Z,21.59
2023-03-02T04:03:41.547Z,21.60
2023-03-02T04:04:41.544Z,21.59
2023-03-02T04:05:41.550Z,21.57
2023-03-02T04:06:41.567Z,21.59
2023-03-02T04:07:41.566Z,21.57
2023-03-02T04:08:41.579Z,21.56
2023-03-02T04:09:41.582Z,21.60
2023-03-02T04:10:41.577Z,21.60
2023-03-02T04:11:41.566Z,21.57
2023-03-02T04:12:41.580Z,21.54
2023-03-02T04:13:41.590Z,21.54
2023-03-02T04:14:41.588Z,21.56
2023-03-02T04:15:41.617Z,21.59
2023-03-02T04:16:41.629Z,21.56
2023-03-02T04:17:41.660Z,21.57
2023-03-02T04:18:41.724Z,21.54
2023-03-02T04:19:41.696Z,21.57
2023-03-02T04:20:41.745Z,21.57
2023-03-02T04:21:41.760Z,21.53
2023-03-02T04:22:41.863Z,21.57
2023-03-02T04:23:41.798Z,21.57
2023-03-02T04:24:41.847Z,21.54
2023-03-02T04:25:41.872Z,21.56
2023-03-02T04:26:41.902Z,21.56
2023-03-02T04:27:41.918Z,21.57
2023-03-02T04:28:41.929Z,21.57
2023-03-02T04:29:41.946Z,21.59
2023-03-02T04:30:41.948Z,21.56
2023-03-02T04:31:41.970Z,21.57
2023-03-02T04:32:41.987Z,21.57
2023-03-02T04:33:42.058Z,21.57
2023-03-02T04:34:42.090Z,21.56
2023-03-02T04:35:42.171Z,21.54
2023-03-02T04:36:42.175Z,21.57
2023-03-02T04:37:42.229Z,21.57
2023-03-02T04:38:42.263Z,21.57
2023-03-02T04:39:42.325Z,21.57
2023-03-02T04:40:42.374Z,21.56
2023-03-02T04:41:42.404Z,21.57
2023-03-02T04:42:42.425Z,21.59
2023-03-02T04:43:42.476Z,21.57
2023-03-02T04:44:42.506Z,21.59
2023-03-02T04:45:42.546Z,21.59
2023-03-02T04:46:44.607Z,21.57
2023-03-02T04:47:42.589Z,21.56
2023-03-02T04:48:42.638Z,21.57
2023-03-02T04:49:42.661Z,21.60
2023-03-02T04:50:42.693Z,21.57
2023-03-02T04:51:42.707Z,21.59
2023-03-02T04:52:42.747Z,21.59
2023-03-02T04:53:42.765Z,21.59
2023-03-02T04:54:42.786Z,21.60
2023-03-02T04:55:42.814Z,21.61
2023-03-02T04:56:42.828Z,21.60
2023-03-02T04:57:42.851Z,21.60
2023-03-02T04:58:42.898Z,21.61
2023-03-02T04:59:42.909Z,21.60
2023-03-02T05:00:42.909Z,21.60
2023-03-02T05:01:42.926Z,21.59
2023-03-02T05:02:43.014Z,21.57
2023-03-02T05:03:42.967Z,21.61
2023-03-02T05:04:43.047Z,21.60
2023-03-02T05:05:42.989Z,21.59
2023-03-02T05:06:42.993Z,21.60
2023-03-02T05:07:42.986Z,21.59
2023-03-02T05:08:43.008Z,21.61
2023-03-02T05:09:43.023Z,21.63
2023-03-02T05:10:43.039Z,21.59
2023-03-02T05:11:43.071Z,21.61
2023-03-02T05:12:43.105Z,21.60
2023-03-02T05:13:43.131Z,21.61
2023-03-02T05:14:45.660Z,21.60
2023-03-02T05:15:43.453Z,21.60
2023-03-02T05:16:43.366Z,21.61
2023-03-02T05:17:43.293Z,21.63
2023-03-02T05:18:43.305Z,21.60
2023-03-02T05:19:43.330Z,21.63
2023-03-02T05:20:43.325Z,21.60
2023-03-02T05:21:43.324Z,21.60
2023-03-02T05:22:43.347Z,21.63
2023-03-02T05:23:43.373Z,21.61
2023-03-02T05:24:43.382Z,21.63
2023-03-02T05:25:43.480Z,21.63
2023-03-02T05:26:43.418Z,21.60
2023-03-02T05:27:43.430Z,21.63
2023-03-02T05:28:43.420Z,21.63
2023-03-02T05:29:43.434Z,21.61
2023-03-02T05:30:43.447Z,21.61
2023-03-02T05:31:43.521Z,21.61
2023-03-02T05:32:43.462Z,21.60
2023-03-02T05:33:43.495Z,21.63
2023-03-02T05:34:43.549Z,21.60
2023-03-02T05:35:43.631Z,21.61
2023-03-02T05:36:43.584Z,21.61
2023-03-02T05:37:43.586Z,21.61
2023-03-02T05:38:43.617Z,21.61
2023-03-02T05:39:43.636Z,21.60
2023-03-02T05:40:43.664Z,21.60
2023-03-02T05:41:43.677Z,21.63
2023-03-02T05:42:43.679Z,21.61
2023-03-02T05:43:43.697Z,21.61
2023-03-02T05:44:43.726Z,21.63
2023-03-02T05:45:43.751Z,21.63
2023-03-02T05:46:43.814Z,21.61
2023-03-02T05:47:43.801Z,21.60
2023-03-02T05:48:43.818Z,21.60
2023-03-02T05:49:43.834Z,21.64
2023-03-02T05:50:43.859Z,21.61
2023-03-02T05:51:43.901Z,21.61
2023-03-02T05:52:43.940Z,21.59
2023-03-02T05:53:43.965Z,21.63
2023-03-02T05:54:43.988Z,21.61
2023-03-02T05:55:44.005Z,21.61
2023-03-02T05:56:44.004Z,21.63
2023-03-02T05:57:44.027Z,21.61
2023-03-02T05:58:44.066Z,21.63
2023-03-02T05:59:44.055Z,21.61
2023-03-02T06:00:44.065Z,21.60
2023-03-02T06:01:44.123Z,21.61
2023-03-02T06:02:44.221Z,21.61
2023-03-02T06:03:44.121Z,21.57
2023-03-02T06:04:44.119Z,21.57
2023-03-02T06:05:44.145Z,21.57
2023-03-02T06:06:44.184Z,21.54
2023-03-02T06:07:44.188Z,21.54
2023-03-02T06:08:44.207Z,21.57
2023-03-02T06:09:44.215Z,21.53
2023-03-02T06:10:44.193Z,21.53
2023-03-02T06:11:44.260Z,21.53
2023-03-02T06:12:44.205Z,21.54
2023-03-02T06:13:44.236Z,21.54
2023-03-02T06:14:44.247Z,21.54
2023-03-02T06:15:44.285Z,21.53
2023-03-02T06:16:44.375Z,21.50
2023-03-02T06:17:44.300Z,21.49
2023-03-02T06:18:44.289Z,21.49
2023-03-02T06:19:44.284Z,21.49
2023-03-02T06:20:44.298Z,21.46
2023-03-02T06:21:44.310Z,21.48
2023-03-02T06:22:44.290Z,21.48
2023-03-02T06:23:44.322Z,21.49
2023-03-02T06:24:44.310Z,21.50
2023-03-02T06:25:44.297Z,21.50
2023-03-02T06:26:47.655Z,21.50
2023-03-02T06:27:44.299Z,21.48
2023-03-02T06:28:53.893Z,21.52
2023-03-02T06:29:45.294Z,21.53
2023-03-02T06:30:44.279Z,21.54
2023-03-02T06:31:44.402Z,21.56
2023-03-02T06:32:44.311Z,21.59
2023-03-02T06:33:44.250Z,21.61
2023-03-02T06:34:44.233Z,21.64
2023-03-02T06:35:44.341Z,21.67
2023-03-02T06:36:44.212Z,21.72
2023-03-02T06:37:44.565Z,21.70
2023-03-02T06:38:44.177Z,21.70
2023-03-02T06:39:44.158Z,21.70
2023-03-02T06:40:44.185Z,21.67
2023-03-02T06:41:44.146Z,21.69
2023-03-02T06:42:44.147Z,21.69
2023-03-02T06:43:44.131Z,21.67
2023-03-02T06:44:44.104Z,21.72
2023-03-02T06:45:44.149Z,21.72
2023-03-02T06:46:44.074Z,21.67
2023-03-02T06:47:44.065Z,21.66
2023-03-02T06:48:44.049Z,21.66
2023-03-02T06:49:44.021Z,21.66
2023-03-02T06:50:44.644Z,21.66
2023-03-02T06:51:43.986Z,21.66
2023-03-02T06:52:43.983Z,21.64
2023-03-02T06:53:43.954Z,21.63
2023-03-02T06:54:43.945Z,21.61
2023-03-02T06:55:43.922Z,21.63
2023-03-02T06:56:43.916Z,21.59
2023-03-02T06:57:43.898Z,21.61
2023-03-02T06:58:43.882Z,21.63
2023-03-02T06:59:43.861Z,21.60
2023-03-02T07:00:43.856Z,21.59
2023-03-02T07:01:44.840Z,21.59
2023-03-02T07:02:44.679Z,21.59
2023-03-02T07:03:43.856Z,21.56
2023-03-02T07:04:43.803Z,21.56
2023-03-02T07:05:46.082Z,21.54
2023-03-02T07:06:43.875Z,21.54
2023-03-02T07:07:43.874Z,21.54
2023-03-02T07:08:43.867Z,21.54
2023-03-02T07:09:43.861Z,21.56
2023-03-02T07:10:43.867Z,21.54
2023-03-02T07:12:43.862Z,21.53
2023-03-02T07:13:43.882Z,21.52
2023-03-02T07:14:43.886Z,21.54
2023-03-02T07:15:43.869Z,21.54
2023-03-02T10:56:47.749Z,22.00
2023-03-02T10:57:47.791Z,22.00
2023-03-02T10:58:47.928Z,21.98
2023-03-02T10:59:47.909Z,21.97
2023-03-02T11:00:47.937Z,21.96
2023-03-02T11:01:48.005Z,21.96
2023-03-02T11:02:48.044Z,21.96
2023-03-02T11:03:48.109Z,21.96
2023-03-02T11:04:50.222Z,21.93
2023-03-02T11:05:48.193Z,21.93
2023-03-02T11:06:48.229Z,21.88
2023-03-02T11:07:48.262Z,21.90
2023-03-02T11:08:48.309Z,21.90
2023-03-02T11:09:48.294Z,21.88
2023-03-02T11:10:48.302Z,21.91
2023-03-02T11:11:48.444Z,21.90
2023-03-02T11:12:48.345Z,21.91
2023-03-02T11:13:48.383Z,21.91
2023-03-02T11:14:48.388Z,21.90
2023-03-02T11:15:48.475Z,21.93
2023-03-02T11:16:48.425Z,21.97
2023-03-02T11:17:48.478Z,21.97
2023-03-02T11:18:48.532Z,22.00
2023-03-02T11:19:48.577Z,22.03
2023-03-02T11:20:48.618Z,22.05
2023-03-02T11:21:48.672Z,22.07
2023-03-02T11:22:48.725Z,22.08
2023-03-02T11:23:48.775Z,22.08
2023-03-02T11:24:48.813Z,22.09
2023-03-02T11:25:48.847Z,22.08
2023-03-02T11:26:48.871Z,22.04
2023-03-02T11:27:48.914Z,22.05
2023-03-02T11:28:48.972Z,22.04
2023-03-02T11:29:48.997Z,22.04
2023-03-02T11:30:49.058Z,22.00
2023-03-02T11:31:49.168Z,21.97
2023-03-02T11:32:49.236Z,21.96
2023-03-02T11:33:49.239Z,21.94
2023-03-02T11:34:50.188Z,21.96
2023-03-02T11:35:49.309Z,21.96
2023-03-02T11:36:49.299Z,21.97
2023-03-02T11:37:49.336Z,21.98
2023-03-02T11:38:49.374Z,21.97
2023-03-02T11:39:55.550Z,22.00
2023-03-02T11:40:50.413Z,21.96
2023-03-02T11:41:49.411Z,21.97
2023-03-02T11:42:49.402Z,22.00
2023-03-02T11:43:49.380Z,22.00
2023-03-02T11:44:50.244Z,22.00
2023-03-02T11:45:49.363Z,22.00
2023-03-02T11:46:49.410Z,21.97
2023-03-02T11:47:57.257Z,22.01
2023-03-02T11:48:50.328Z,22.01
2023-03-02T11:49:49.308Z,22.00
2023-03-02T11:50:49.306Z,21.97
2023-03-02T11:51:57.788Z,21.98
2023-03-02T11:52:50.269Z,21.97
2023-03-02T11:53:49.296Z,21.96
2023-03-02T11:54:49.248Z,21.94
2023-03-02T11:55:49.232Z,21.93
2023-03-02T11:56:49.222Z,21.90
2023-03-02T11:57:49.223Z,21.90
2023-03-02T11:58:49.204Z,21.90
2023-03-02T11:59:49.187Z,21.91
2023-03-02T12:00:49.203Z,21.93
2023-03-02T12:01:49.433Z,21.94
2023-03-02T12:02:49.296Z,21.94
2023-03-02T12:03:49.306Z,21.88
2023-03-02T12:04:49.321Z,21.88
2023-03-02T12:05:49.357Z,21.86
2023-03-02T12:58:14.926Z,22.03
2023-03-02T12:59:14.953Z,22.03
2023-03-02T13:00:14.995Z,22.03
2023-03-02T14:49:17.751Z,22.00
2023-03-02T14:50:17.790Z,21.98
2023-03-02T14:51:17.814Z,21.96
2023-03-02T14:52:17.859Z,21.97
2023-03-02T14:53:17.906Z,21.94
2023-03-02T14:54:17.960Z,21.94
2023-03-02T14:55:18.029Z,21.90
2023-03-02T14:56:18.094Z,21.83
2023-03-02T14:57:18.192Z,21.86
2023-03-02T14:58:18.257Z,21.86
2023-03-02T14:59:18.352Z,21.87
2023-03-02T15:00:18.420Z,21.87
2023-03-02T15:01:18.508Z,21.91
2023-03-02T15:02:25.795Z,21.90
2023-03-02T15:03:19.649Z,21.93
2023-03-02T15:04:18.572Z,21.93
2023-03-02T15:05:18.601Z,21.94
2023-03-02T15:06:18.612Z,21.96
2023-03-02T15:07:18.640Z,21.97
2023-03-02T15:08:18.664Z,21.97
2023-03-02T15:09:18.676Z,22.00
2023-03-02T15:10:18.695Z,22.00
2023-03-02T15:11:18.720Z,22.00
2023-03-02T15:12:18.726Z,22.01
2023-03-02T15:13:18.744Z,22.04
2023-03-02T15:14:18.787Z,22.05
2023-03-02T15:15:18.779Z,22.04
2023-03-02T15:16:18.886Z,22.04
2023-03-02T15:17:18.820Z,22.07
2023-03-02T15:18:18.816Z,22.05
2023-03-02T15:19:18.849Z,22.03
2023-03-02T15:20:18.849Z,22.08
2023-03-02T15:21:18.869Z,22.07
2023-03-02T15:22:18.918Z,22.07
2023-03-02T15:23:18.936Z,22.07
2023-03-02T15:24:19.021Z,22.04
2023-03-02T15:25:19.030Z,22.07
2023-03-02T15:26:19.636Z,22.03
2023-03-02T15:27:19.128Z,22.03
2023-03-02T15:28:19.161Z,22.03
2023-03-02T15:29:19.202Z,22.03
2023-03-02T15:30:19.263Z,22.01
2023-03-02T15:31:19.320Z,22.03
2023-03-02T15:32:19.356Z,22.03
2023-03-02T15:33:19.385Z,22.01
2023-03-02T15:34:19.432Z,22.00
2023-03-02T15:35:19.473Z,22.01
2023-03-02T15:36:19.525Z,21.98
2023-03-02T15:37:19.575Z,21.98
2023-03-02T15:38:19.654Z,22.00
2023-03-02T15:39:19.653Z,22.00
2023-03-02T15:40:19.686Z,22.00
2023-03-02T15:41:19.731Z,22.00
2023-03-02T15:42:19.781Z,21.98
2023-03-02T15:43:19.906Z,21.97
2023-03-02T15:44:19.895Z,21.97
2023-03-02T15:45:19.937Z,21.94
2023-03-02T15:46:19.990Z,21.96
2023-03-02T15:47:20.017Z,21.94
2023-03-02T15:48:20.145Z,21.93
2023-03-02T15:49:20.121Z,21.93
2023-03-02T15:50:20.163Z,21.93
2023-03-02T15:51:20.190Z,21.93
2023-03-02T15:52:20.253Z,21.91
2023-03-02T15:53:20.307Z,21.94
2023-03-02T15:54:20.359Z,21.97
2023-03-02T15:55:20.422Z,21.93
2023-03-02T15:56:20.451Z,21.93
2023-03-02T15:57:20.506Z,21.94
2023-03-02T15:58:20.551Z,21.94
2023-03-02T15:59:20.616Z,21.94
2023-03-02T16:00:20.647Z,21.93
2023-03-02T16:01:20.703Z,21.93
2023-03-02T16:02:20.745Z,21.91
2023-03-02T16:03:20.816Z,21.93
2023-03-02T16:04:20.840Z,21.96
2023-03-02T16:05:20.895Z,21.93
2023-03-02T16:06:20.947Z,21.90
2023-03-02T16:07:20.995Z,21.93
2023-03-02T16:08:21.058Z,21.91
2023-03-02T16:09:21.101Z,21.91
2023-03-02T16:10:21.199Z,21.91
2023-03-02T16:11:21.222Z,21.93
2023-03-02T16:12:21.285Z,21.94
2023-03-02T16:13:21.317Z,21.94
2023-03-02T16:14:21.373Z,21.93
2023-03-02T16:15:21.418Z,21.93
2023-03-02T16:16:21.548Z,21.94
2023-03-02T16:17:21.519Z,21.94
2023-03-02T16:18:21.576Z,21.94
2023-03-02T16:19:21.627Z,21.91
2023-03-02T16:20:21.686Z,21.94
2023-03-02T16:21:21.760Z,21.90
2023-03-02T16:22:21.785Z,21.91
2023-03-02T16:23:21.837Z,21.96
2023-03-02T16:24:21.908Z,21.93
2023-03-02T16:25:21.933Z,21.91
2023-03-02T16:26:22.005Z,21.91
2023-03-02T16:27:22.043Z,21.91
2023-03-02T16:28:22.100Z,21.91
2023-03-02T16:29:22.145Z,21.91
2023-03-02T16:30:23.532Z,21.91
2023-03-02T16:48:23.127Z,21.87
2023-03-02T16:49:23.194Z,21.88
2023-03-02T16:50:23.243Z,21.90
2023-03-02T16:51:23.302Z,21.90
2023-03-02T16:52:23.358Z,21.88
2023-03-02T16:53:23.411Z,21.88
2023-03-02T16:54:23.464Z,21.88
2023-03-02T16:55:23.514Z,21.87
2023-03-02T16:56:23.594Z,21.90
2023-03-02T16:57:23.637Z,21.88
2023-03-02T16:58:24.677Z,21.88
2023-03-02T16:59:23.738Z,21.90
2023-03-02T17:00:23.811Z,21.91
2023-03-02T17:01:23.872Z,21.90
2023-03-02T17:02:23.930Z,21.90
2023-03-02T17:03:23.974Z,21.90
2023-03-02T17:04:24.019Z,21.90
2023-03-02T17:05:24.052Z,21.88
2023-03-02T17:06:24.124Z,21.90
2023-03-02T17:07:24.163Z,21.88
2023-03-02T17:08:24.214Z,21.87
2023-03-02T17:09:24.280Z,21.88
2023-03-02T17:10:24.341Z,21.93
2023-03-02T17:11:24.399Z,21.88
2023-03-02T17:12:24.438Z,21.91
2023-03-02T17:13:24.481Z,21.91
2023-03-02T17:14:24.553Z,21.91
2023-03-02T17:15:24.590Z,21.91
2023-03-02T17:16:24.634Z,21.91
2023-03-02T17:17:24.688Z,21.91
2023-03-02T17:18:24.730Z,21.90
2023-03-02T18:19:27.736Z,21.94
2023-03-02T18:20:27.805Z,21.91
2023-03-02T18:21:27.851Z,21.90
2023-03-02T18:22:27.904Z,21.90
2023-03-02T18:23:27.968Z,21.88
2023-03-02T18:24:28.000Z,21.90
2023-03-02T18:25:28.061Z,21.87
2023-03-02T18:26:28.111Z,21.86
2023-03-02T18:27:28.200Z,21.86
2023-03-02T18:28:28.224Z,21.86
2023-03-02T18:29:28.285Z,21.87
2023-03-02T18:30:28.325Z,21.86
2023-03-02T18:31:28.447Z,21.86
2023-03-02T18:32:28.468Z,21.87
2023-03-02T18:33:28.500Z,21.87
2023-03-02T18:34:28.550Z,21.83
2023-03-02T18:42:28.983Z,21.83
2023-03-02T18:43:29.054Z,21.81
2023-03-02T18:44:29.092Z,21.84
2023-03-02T18:45:29.148Z,21.83
2023-03-02T18:46:29.232Z,21.84
2023-03-02T18:47:29.262Z,21.81
2023-03-02T18:48:29.317Z,21.83
2023-03-02T18:49:29.381Z,21.83
2023-03-02T18:50:29.447Z,21.81
2023-03-02T18:51:29.522Z,21.84
2023-03-02T18:52:29.566Z,21.81
2023-03-02T18:53:29.625Z,21.83
2023-03-02T18:54:29.659Z,21.83
2023-03-02T18:55:29.745Z,21.83
2023-03-02T18:56:29.786Z,21.84
2023-03-02T18:57:29.837Z,21.84
2023-03-02T18:58:32.193Z,21.83
2023-03-02T18:59:29.948Z,21.80
2023-03-02T19:00:30.049Z,21.80
2023-03-02T19:01:30.098Z,21.81
2023-03-02T19:02:30.138Z,21.80
2023-03-02T19:03:30.170Z,21.81
2023-03-02T19:04:30.233Z,21.81
2023-03-02T19:05:30.311Z,21.78
2023-03-02T19:06:30.344Z,21.80
2023-03-02T19:07:30.418Z,21.81
2023-03-02T19:08:30.500Z,21.83
2023-03-02T19:09:30.531Z,21.80
2023-03-02T19:10:30.609Z,21.80
2023-03-02T19:11:30.648Z,21.80
2023-03-02T19:12:30.717Z,21.78
2023-03-02T19:13:30.778Z,21.78
2023-03-02T19:14:30.845Z,21.81
2023-03-02T19:15:30.912Z,21.78
2023-03-02T19:16:31.010Z,21.80
2023-03-02T19:17:31.040Z,21.78
2023-03-02T19:18:31.110Z,21.78
2023-03-02T19:19:31.184Z,21.80
2023-03-02T19:20:31.240Z,21.80
2023-03-02T19:21:31.309Z,21.80
2023-03-02T19:22:31.370Z,21.77
2023-03-02T19:23:31.440Z,21.80
2023-03-02T19:24:31.496Z,21.76
2023-03-02T19:25:31.558Z,21.76
2023-03-02T19:26:31.629Z,21.80
2023-03-02T19:27:31.715Z,21.80
2023-03-02T19:28:31.766Z,21.81
2023-03-02T19:29:31.820Z,21.78
2023-03-02T19:30:31.906Z,21.78
2023-03-02T19:31:31.998Z,21.77
2023-03-02T19:32:32.057Z,21.78
2023-03-02T19:33:32.090Z,21.78
2023-03-02T19:34:32.172Z,21.80
2023-03-02T19:35:32.256Z,21.77
2023-03-02T19:36:32.289Z,21.80
2023-03-02T19:37:32.352Z,21.77
2023-03-02T19:38:32.410Z,21.76
2023-03-02T19:39:32.470Z,21.77
2023-03-02T19:40:32.541Z,21.77
2023-03-02T19:41:32.616Z,21.77
2023-03-02T19:42:32.659Z,21.76
2023-03-02T19:43:32.724Z,21.77
2023-03-02T19:44:32.782Z,21.78
2023-03-02T19:45:32.911Z,21.76
2023-03-02T19:46:32.922Z,21.77
2023-03-02T19:47:32.984Z,21.77
2023-03-02T20:55:37.717Z,21.73
2023-03-02T20:56:37.784Z,21.72
2023-03-02T20:57:38.780Z,21.73
2023-03-02T20:59:38.138Z,21.73
2023-03-02T23:17:47.713Z,21.70
2023-03-02T23:18:47.790Z,21.72
2023-03-02T23:19:47.858Z,21.69
2023-03-02T23:20:47.992Z,21.72
2023-03-02T23:21:48.010Z,21.69
2023-03-02T23:22:48.067Z,21.72
2023-03-02T23:23:48.135Z,21.70
2023-03-02T23:24:48.206Z,21.70
2023-03-02T23:25:48.282Z,21.72
2023-03-02T23:26:48.358Z,21.69
2023-03-02T23:28:48.507Z,21.73
